sensor_id;sensor_type;location;lat;lon;timestamp;temperature;humidity
1123;DHT22;548;48.778;9.252;2023-04-25T00:00:20;10.00;99.90
1123;DHT22;548;48.778;9.252;2023-04-25T00:02:48;10.10;99.90
1123;DHT22;548;48.778;9.252;2023-04-25T00:05:14;10.20;99.90
1123;DHT22;548;48.778;9.252;2023-04-25T00:07:41;10.20;99.90
1123;DHT22;548;48.778;9.252;2023-04-25T00:10:09;10.20;99.90
1123;DHT22;548;48.778;9.252;2023-04-25T00:12:36;10.30;99.90
1123;DHT22;548;48.778;9.252;2023-04-25T00:15:03;10.30;99.90
1123;DHT22;548;48.778;9.252;2023-04-25T00:17:30;10.30;99.90
1123;DHT22;548;48.778;9.252;2023-04-25T00:19:58;10.30;99.90
1123;DHT22;548;48.778;9.252;2023-04-25T00:22:25;10.20;99.90
1123;DHT22;548;48.778;9.252;2023-04-25T00:24:52;10.20;99.90
1123;DHT22;548;48.778;9.252;2023-04-25T00:27:21;10.20;99.90
1123;DHT22;548;48.778;9.252;2023-04-25T00:29:48;10.30;99.90
1123;DHT22;548;48.778;9.252;2023-04-25T00:32:15;10.30;99.90
1123;DHT22;548;48.778;9.252;2023-04-25T00:34:41;10.20;99.90
1123;DHT22;548;48.778;9.252;2023-04-25T00:37:09;10.20;99.90
1123;DHT22;548;48.778;9.252;2023-04-25T00:39:37;10.20;99.90
1123;DHT22;548;48.778;9.252;2023-04-25T00:42:03;10.20;99.90
1123;DHT22;548;48.778;9.252;2023-04-25T00:44:31;10.30;99.90
1123;DHT22;548;48.778;9.252;2023-04-25T00:46:59;10.20;99.90
1123;DHT22;548;48.778;9.252;2023-04-25T00:49:27;10.20;99.90
1123;DHT22;548;48.778;9.252;2023-04-25T00:51:54;10.20;99.90
1123;DHT22;548;48.778;9.252;2023-04-25T00:54:22;10.20;99.90
1123;DHT22;548;48.778;9.252;2023-04-25T00:56:49;10.10;99.90
1123;DHT22;548;48.778;9.252;2023-04-25T00:59:17;10.00;99.90
1123;DHT22;548;48.778;9.252;2023-04-25T01:01:45;9.90;99.90
1123;DHT22;548;48.778;9.252;2023-04-25T01:04:12;10.00;99.90
1123;DHT22;548;48.778;9.252;2023-04-25T01:06:40;9.90;99.90
1123;DHT22;548;48.778;9.252;2023-04-25T01:09:07;9.80;99.90
1123;DHT22;548;48.778;9.252;2023-04-25T01:11:36;9.80;99.90
1123;DHT22;548;48.778;9.252;2023-04-25T01:14:03;9.70;99.90
1123;DHT22;548;48.778;9.252;2023-04-25T01:16:30;9.70;99.90
1123;DHT22;548;48.778;9.252;2023-04-25T01:18:57;9.70;99.90
1123;DHT22;548;48.778;9.252;2023-04-25T01:21:25;9.80;99.90
1123;DHT22;548;48.778;9.252;2023-04-25T01:23:53;9.80;99.90
1123;DHT22;548;48.778;9.252;2023-04-25T01:26:21;9.80;99.90
1123;DHT22;548;48.778;9.252;2023-04-25T01:28:49;10.00;99.90
1123;DHT22;548;48.778;9.252;2023-04-25T01:31:16;10.00;99.90
1123;DHT22;548;48.778;9.252;2023-04-25T01:33:44;9.90;99.90
1123;DHT22;548;48.778;9.252;2023-04-25T01:36:11;9.90;99.90
1123;DHT22;548;48.778;9.252;2023-04-25T01:38:40;9.80;99.90
1123;DHT22;548;48.778;9.252;2023-04-25T01:41:07;9.70;99.90
1123;DHT22;548;48.778;9.252;2023-04-25T01:43:34;9.60;99.90
1123;DHT22;548;48.778;9.252;2023-04-25T01:46:01;9.50;99.90
1123;DHT22;548;48.778;9.252;2023-04-25T01:48:27;9.40;99.90
1123;DHT22;548;48.778;9.252;2023-04-25T01:50:54;9.40;99.90
1123;DHT22;548;48.778;9.252;2023-04-25T01:53:20;9.30;99.90
1123;DHT22;548;48.778;9.252;2023-04-25T01:55:49;9.30;99.90
1123;DHT22;548;48.778;9.252;2023-04-25T01:58:16;9.30;99.90
1123;DHT22;548;48.778;9.252;2023-04-25T02:00:42;9.20;99.90
1123;DHT22;548;48.778;9.252;2023-04-25T02:03:10;9.20;99.90
1123;DHT22;548;48.778;9.252;2023-04-25T02:05:37;9.20;99.90
1123;DHT22;548;48.778;9.252;2023-04-25T02:08:05;9.20;99.90
1123;DHT22;548;48.778;9.252;2023-04-25T02:10:32;9.30;99.90
1123;DHT22;548;48.778;9.252;2023-04-25T02:13:00;9.20;99.90
1123;DHT22;548;48.778;9.252;2023-04-25T02:15:27;9.20;99.90
1123;DHT22;548;48.778;9.252;2023-04-25T02:17:54;9.20;99.90
1123;DHT22;548;48.778;9.252;2023-04-25T02:20:22;9.20;99.90
1123;DHT22;548;48.778;9.252;2023-04-25T02:22:49;9.10;99.90
1123;DHT22;548;48.778;9.252;2023-04-25T02:25:16;9.10;99.90
1123;DHT22;548;48.778;9.252;2023-04-25T02:27:43;9.20;99.90
1123;DHT22;548;48.778;9.252;2023-04-25T02:30:12;9.10;99.90
1123;DHT22;548;48.778;9.252;2023-04-25T02:32:39;9.10;99.90
1123;DHT22;548;48.778;9.252;2023-04-25T02:35:07;9.10;99.90
1123;DHT22;548;48.778;9.252;2023-04-25T02:37:35;9.00;99.90
1123;DHT22;548;48.778;9.252;2023-04-25T02:40:03;9.00;99.90
1123;DHT22;548;48.778;9.252;2023-04-25T02:42:30;8.90;99.90
1123;DHT22;548;48.778;9.252;2023-04-25T02:44:57;8.90;99.90
1123;DHT22;548;48.778;9.252;2023-04-25T02:47:25;8.90;99.90
1123;DHT22;548;48.778;9.252;2023-04-25T02:49:51;9.00;99.90
1123;DHT22;548;48.778;9.252;2023-04-25T02:52:18;9.00;99.90
1123;DHT22;548;48.778;9.252;2023-04-25T02:54:45;9.00;99.90
1123;DHT22;548;48.778;9.252;2023-04-25T02:57:11;9.10;99.90
1123;DHT22;548;48.778;9.252;2023-04-25T02:59:38;9.10;99.90
1123;DHT22;548;48.778;9.252;2023-04-25T03:02:05;9.20;99.90
1123;DHT22;548;48.778;9.252;2023-04-25T03:04:33;9.30;99.90
1123;DHT22;548;48.778;9.252;2023-04-25T03:06:59;9.30;99.90
1123;DHT22;548;48.778;9.252;2023-04-25T03:09:26;9.30;99.90
1123;DHT22;548;48.778;9.252;2023-04-25T03:11:53;9.40;99.90
1123;DHT22;548;48.778;9.252;2023-04-25T03:14:19;9.40;99.90
1123;DHT22;548;48.778;9.252;2023-04-25T03:16:46;9.50;99.90
1123;DHT22;548;48.778;9.252;2023-04-25T03:19:13;9.50;99.90
1123;DHT22;548;48.778;9.252;2023-04-25T03:21:42;9.60;99.90
1123;DHT22;548;48.778;9.252;2023-04-25T03:24:09;9.60;99.90
1123;DHT22;548;48.778;9.252;2023-04-25T03:26:36;9.70;99.90
1123;DHT22;548;48.778;9.252;2023-04-25T03:29:03;9.70;99.90
1123;DHT22;548;48.778;9.252;2023-04-25T03:31:30;9.70;99.90
1123;DHT22;548;48.778;9.252;2023-04-25T03:33:57;9.80;99.90
1123;DHT22;548;48.778;9.252;2023-04-25T03:36:23;9.70;99.90
1123;DHT22;548;48.778;9.252;2023-04-25T03:38:51;9.70;99.90
1123;DHT22;548;48.778;9.252;2023-04-25T03:41:18;9.60;99.90
1123;DHT22;548;48.778;9.252;2023-04-25T03:43:45;9.50;99.90
1123;DHT22;548;48.778;9.252;2023-04-25T03:46:12;9.40;99.90
1123;DHT22;548;48.778;9.252;2023-04-25T03:48:38;9.40;99.90
1123;DHT22;548;48.778;9.252;2023-04-25T03:51:05;9.40;99.90
1123;DHT22;548;48.778;9.252;2023-04-25T03:53:32;9.40;99.90
1123;DHT22;548;48.778;9.252;2023-04-25T03:56:00;9.50;99.90
1123;DHT22;548;48.778;9.252;2023-04-25T03:58:27;9.60;99.90
1123;DHT22;548;48.778;9.252;2023-04-25T04:00:53;9.60;99.90
1123;DHT22;548;48.778;9.252;2023-04-25T04:03:20;9.50;99.90
1123;DHT22;548;48.778;9.252;2023-04-25T04:05:47;9.60;99.90
1123;DHT22;548;48.778;9.252;2023-04-25T04:08:14;9.60;99.90
1123;DHT22;548;48.778;9.252;2023-04-25T04:10:40;9.60;99.90
1123;DHT22;548;48.778;9.252;2023-04-25T04:13:08;9.40;99.90
1123;DHT22;548;48.778;9.252;2023-04-25T04:15:35;9.20;99.90
1123;DHT22;548;48.778;9.252;2023-04-25T04:18:02;9.10;99.90
1123;DHT22;548;48.778;9.252;2023-04-25T04:20:29;9.10;99.90
1123;DHT22;548;48.778;9.252;2023-04-25T04:22:56;9.00;99.90
1123;DHT22;548;48.778;9.252;2023-04-25T04:25:23;9.00;99.90
1123;DHT22;548;48.778;9.252;2023-04-25T04:27:50;9.00;99.90
1123;DHT22;548;48.778;9.252;2023-04-25T04:30:21;9.00;99.90
1123;DHT22;548;48.778;9.252;2023-04-25T04:32:49;9.20;99.90
1123;DHT22;548;48.778;9.252;2023-04-25T04:35:16;9.30;99.90
1123;DHT22;548;48.778;9.252;2023-04-25T04:37:43;9.30;99.90
1123;DHT22;548;48.778;9.252;2023-04-25T04:40:20;9.30;99.90
1123;DHT22;548;48.778;9.252;2023-04-25T04:42:47;9.20;99.90
1123;DHT22;548;48.778;9.252;2023-04-25T04:45:15;9.20;99.90
1123;DHT22;548;48.778;9.252;2023-04-25T04:47:43;9.30;99.90
1123;DHT22;548;48.778;9.252;2023-04-25T04:50:11;9.40;99.90
1123;DHT22;548;48.778;9.252;2023-04-25T04:52:38;9.60;99.90
1123;DHT22;548;48.778;9.252;2023-04-25T04:55:06;9.70;99.90
1123;DHT22;548;48.778;9.252;2023-04-25T04:57:33;9.80;99.90
1123;DHT22;548;48.778;9.252;2023-04-25T05:00:00;10.00;99.90
1123;DHT22;548;48.778;9.252;2023-04-25T05:02:27;10.10;99.90
1123;DHT22;548;48.778;9.252;2023-04-25T05:04:56;10.20;99.90
1123;DHT22;548;48.778;9.252;2023-04-25T05:07:22;10.00;99.90
1123;DHT22;548;48.778;9.252;2023-04-25T05:10:12;10.30;99.90
1123;DHT22;548;48.778;9.252;2023-04-25T05:12:39;10.40;99.90
1123;DHT22;548;48.778;9.252;2023-04-25T05:15:06;10.40;99.90
1123;DHT22;548;48.778;9.252;2023-04-25T05:17:33;10.40;99.90
1123;DHT22;548;48.778;9.252;2023-04-25T05:20:31;10.50;99.90
1123;DHT22;548;48.778;9.252;2023-04-25T05:25:26;10.40;99.90
1123;DHT22;548;48.778;9.252;2023-04-25T05:27:52;10.50;99.90
1123;DHT22;548;48.778;9.252;2023-04-25T05:32:06;10.70;99.90
1123;DHT22;548;48.778;9.252;2023-04-25T05:34:43;10.80;99.90
1123;DHT22;548;48.778;9.252;2023-04-25T05:37:14;10.90;99.90
1123;DHT22;548;48.778;9.252;2023-04-25T05:40:01;11.00;99.90
1123;DHT22;548;48.778;9.252;2023-04-25T05:42:32;10.90;99.90
1123;DHT22;548;48.778;9.252;2023-04-25T05:45:04;10.80;99.90
1123;DHT22;548;48.778;9.252;2023-04-25T05:47:52;11.00;99.90
1123;DHT22;548;48.778;9.252;2023-04-25T10:26:27;9.40;99.90
1123;DHT22;548;48.778;9.252;2023-04-25T10:28:55;9.30;99.90
1123;DHT22;548;48.778;9.252;2023-04-25T10:31:22;9.30;99.90
1123;DHT22;548;48.778;9.252;2023-04-25T10:33:49;9.40;99.90
1123;DHT22;548;48.778;9.252;2023-04-25T10:36:19;9.40;99.90
1123;DHT22;548;48.778;9.252;2023-04-25T10:38:48;9.30;99.90
1123;DHT22;548;48.778;9.252;2023-04-25T10:41:18;9.40;99.90
1123;DHT22;548;48.778;9.252;2023-04-25T10:43:47;9.50;99.90
1123;DHT22;548;48.778;9.252;2023-04-25T10:46:19;9.50;99.90
1123;DHT22;548;48.778;9.252;2023-04-25T10:48:49;9.60;99.90
1123;DHT22;548;48.778;9.252;2023-04-25T10:51:18;9.40;99.90
1123;DHT22;548;48.778;9.252;2023-04-25T10:53:46;9.30;99.90
1123;DHT22;548;48.778;9.252;2023-04-25T10:56:17;9.40;99.90
1123;DHT22;548;48.778;9.252;2023-04-25T10:58:47;9.50;99.90
1123;DHT22;548;48.778;9.252;2023-04-25T11:01:19;9.50;99.90
1123;DHT22;548;48.778;9.252;2023-04-25T11:03:46;9.40;99.90
1123;DHT22;548;48.778;9.252;2023-04-25T11:06:22;9.30;99.90
1123;DHT22;548;48.778;9.252;2023-04-25T11:08:50;9.20;99.90
1123;DHT22;548;48.778;9.252;2023-04-25T11:11:17;9.00;99.90
1123;DHT22;548;48.778;9.252;2023-04-25T11:13:46;8.80;99.90
1123;DHT22;548;48.778;9.252;2023-04-25T11:16:15;8.70;99.90
1123;DHT22;548;48.778;9.252;2023-04-25T11:18:42;8.80;99.90
1123;DHT22;548;48.778;9.252;2023-04-25T11:21:09;8.80;99.90
1123;DHT22;548;48.778;9.252;2023-04-25T11:23:36;8.70;99.90
1123;DHT22;548;48.778;9.252;2023-04-25T11:26:03;8.80;99.90
1123;DHT22;548;48.778;9.252;2023-04-25T11:28:30;8.90;99.90
1123;DHT22;548;48.778;9.252;2023-04-25T11:30:56;9.10;99.90
1123;DHT22;548;48.778;9.252;2023-04-25T11:33:25;9.10;99.90
1123;DHT22;548;48.778;9.252;2023-04-25T11:35:54;9.20;99.90
1123;DHT22;548;48.778;9.252;2023-04-25T11:38:22;9.60;99.90
1123;DHT22;548;48.778;9.252;2023-04-25T11:40:52;9.80;99.90
1123;DHT22;548;48.778;9.252;2023-04-25T11:43:20;9.80;99.90
1123;DHT22;548;48.778;9.252;2023-04-25T11:45:48;10.00;99.90
1123;DHT22;548;48.778;9.252;2023-04-25T11:48:16;10.20;99.90
1123;DHT22;548;48.778;9.252;2023-04-25T11:50:44;10.50;99.90
1123;DHT22;548;48.778;9.252;2023-04-25T11:53:11;10.70;99.90
1123;DHT22;548;48.778;9.252;2023-04-25T11:55:38;10.90;99.90
1123;DHT22;548;48.778;9.252;2023-04-25T11:58:05;11.10;99.90
1123;DHT22;548;48.778;9.252;2023-04-25T12:00:34;11.00;99.90
1123;DHT22;548;48.778;9.252;2023-04-25T12:03:01;11.10;99.90
1123;DHT22;548;48.778;9.252;2023-04-25T12:05:30;11.10;99.90
1123;DHT22;548;48.778;9.252;2023-04-25T12:08:09;11.20;99.90
1123;DHT22;548;48.778;9.252;2023-04-25T12:10:37;11.20;99.90
1123;DHT22;548;48.778;9.252;2023-04-25T12:13:19;11.00;99.90
1123;DHT22;548;48.778;9.252;2023-04-25T12:15:45;11.20;99.90
1123;DHT22;548;48.778;9.252;2023-04-25T12:18:12;11.20;99.90
1123;DHT22;548;48.778;9.252;2023-04-25T12:20:39;11.50;99.90
1123;DHT22;548;48.778;9.252;2023-04-25T12:23:07;11.50;99.90
1123;DHT22;548;48.778;9.252;2023-04-25T12:25:35;11.80;99.90
1123;DHT22;548;48.778;9.252;2023-04-25T12:28:12;11.80;99.90
1123;DHT22;548;48.778;9.252;2023-04-25T12:30:55;11.40;99.90
1123;DHT22;548;48.778;9.252;2023-04-25T12:33:23;11.30;99.90
1123;DHT22;548;48.778;9.252;2023-04-25T12:35:49;11.10;99.90
1123;DHT22;548;48.778;9.252;2023-04-25T12:38:28;11.00;99.90
1123;DHT22;548;48.778;9.252;2023-04-25T12:40:57;10.80;99.90
1123;DHT22;548;48.778;9.252;2023-04-25T12:43:23;10.50;99.90
1123;DHT22;548;48.778;9.252;2023-04-25T12:45:51;10.40;99.90
1123;DHT22;548;48.778;9.252;2023-04-25T12:48:18;10.20;99.90
1123;DHT22;548;48.778;9.252;2023-04-25T12:50:45;10.10;99.90
1123;DHT22;548;48.778;9.252;2023-04-25T12:53:14;10.30;99.90
1123;DHT22;548;48.778;9.252;2023-04-25T12:55:42;10.60;99.90
1123;DHT22;548;48.778;9.252;2023-04-25T12:58:11;11.00;99.90
1123;DHT22;548;48.778;9.252;2023-04-25T13:00:38;11.10;99.90
1123;DHT22;548;48.778;9.252;2023-04-25T13:03:05;11.50;99.90
1123;DHT22;548;48.778;9.252;2023-04-25T13:05:31;11.60;99.90
1123;DHT22;548;48.778;9.252;2023-04-25T13:07:58;11.50;99.90
1123;DHT22;548;48.778;9.252;2023-04-25T13:10:25;11.40;99.90
1123;DHT22;548;48.778;9.252;2023-04-25T19:17:28;8.80;99.90
1123;DHT22;548;48.778;9.252;2023-04-25T19:19:55;8.80;99.90
1123;DHT22;548;48.778;9.252;2023-04-25T19:22:22;8.70;99.90
1123;DHT22;548;48.778;9.252;2023-04-25T19:24:48;8.70;99.90
1123;DHT22;548;48.778;9.252;2023-04-25T19:27:15;8.70;99.90
1123;DHT22;548;48.778;9.252;2023-04-25T19:29:42;8.70;99.90
1123;DHT22;548;48.778;9.252;2023-04-25T19:32:12;8.80;99.90
1123;DHT22;548;48.778;9.252;2023-04-25T19:34:41;8.90;99.90
1123;DHT22;548;48.778;9.252;2023-04-25T19:37:07;8.90;99.90
1123;DHT22;548;48.778;9.252;2023-04-25T19:39:34;8.90;99.90
1123;DHT22;548;48.778;9.252;2023-04-25T19:42:01;8.90;99.90
1123;DHT22;548;48.778;9.252;2023-04-25T19:44:28;8.80;99.90
1123;DHT22;548;48.778;9.252;2023-04-25T19:46:55;8.80;99.90
1123;DHT22;548;48.778;9.252;2023-04-25T19:49:23;8.80;99.90
1123;DHT22;548;48.778;9.252;2023-04-25T19:51:52;8.80;99.90
1123;DHT22;548;48.778;9.252;2023-04-25T19:54:19;8.80;99.90
1123;DHT22;548;48.778;9.252;2023-04-25T19:56:46;8.90;99.90
1123;DHT22;548;48.778;9.252;2023-04-25T19:59:12;8.90;99.90
1123;DHT22;548;48.778;9.252;2023-04-25T20:01:39;8.90;99.90
1123;DHT22;548;48.778;9.252;2023-04-25T20:04:06;8.90;99.90
1123;DHT22;548;48.778;9.252;2023-04-25T20:06:33;8.90;99.90
1123;DHT22;548;48.778;9.252;2023-04-25T20:09:01;8.90;99.90
1123;DHT22;548;48.778;9.252;2023-04-25T20:11:28;8.90;99.90
1123;DHT22;548;48.778;9.252;2023-04-25T20:13:55;8.90;99.90
1123;DHT22;548;48.778;9.252;2023-04-25T20:16:22;8.90;99.90
1123;DHT22;548;48.778;9.252;2023-04-25T20:18:49;8.80;99.90
1123;DHT22;548;48.778;9.252;2023-04-25T20:21:17;8.80;99.90
1123;DHT22;548;48.778;9.252;2023-04-25T20:23:45;8.90;99.90
1123;DHT22;548;48.778;9.252;2023-04-25T20:26:13;8.90;99.90
1123;DHT22;548;48.778;9.252;2023-04-25T20:28:39;8.90;99.90
1123;DHT22;548;48.778;9.252;2023-04-25T20:31:07;8.90;99.90
1123;DHT22;548;48.778;9.252;2023-04-25T20:33:35;8.90;99.90
1123;DHT22;548;48.778;9.252;2023-04-25T20:36:03;8.80;99.90
1123;DHT22;548;48.778;9.252;2023-04-25T20:38:29;8.80;99.90
1123;DHT22;548;48.778;9.252;2023-04-25T20:40:57;8.80;99.90
1123;DHT22;548;48.778;9.252;2023-04-25T20:43:25;8.80;99.90
1123;DHT22;548;48.778;9.252;2023-04-25T20:45:52;8.80;99.90
1123;DHT22;548;48.778;9.252;2023-04-25T20:48:19;8.70;99.90
1123;DHT22;548;48.778;9.252;2023-04-25T20:50:46;8.80;99.90
1123;DHT22;548;48.778;9.252;2023-04-25T20:53:12;8.80;99.90
1123;DHT22;548;48.778;9.252;2023-04-25T20:55:39;8.80;99.90
1123;DHT22;548;48.778;9.252;2023-04-25T20:58:06;8.80;99.90
1123;DHT22;548;48.778;9.252;2023-04-25T21:00:35;8.80;99.90
1123;DHT22;548;48.778;9.252;2023-04-25T21:03:04;8.80;99.90
1123;DHT22;548;48.778;9.252;2023-04-25T21:05:31;8.80;99.90
1123;DHT22;548;48.778;9.252;2023-04-25T21:07:58;8.80;99.90
1123;DHT22;548;48.778;9.252;2023-04-25T21:10:24;9.00;99.90
1123;DHT22;548;48.778;9.252;2023-04-25T21:12:51;9.00;99.90
1123;DHT22;548;48.778;9.252;2023-04-25T21:15:20;8.90;99.90
1123;DHT22;548;48.778;9.252;2023-04-25T21:17:49;9.00;99.90
1123;DHT22;548;48.778;9.252;2023-04-25T21:20:16;8.90;99.90
1123;DHT22;548;48.778;9.252;2023-04-25T21:22:43;8.90;99.90
1123;DHT22;548;48.778;9.252;2023-04-25T21:25:14;8.80;99.90
1123;DHT22;548;48.778;9.252;2023-04-25T21:27:45;8.70;99.90
1123;DHT22;548;48.778;9.252;2023-04-25T21:30:12;8.80;99.90
1123;DHT22;548;48.778;9.252;2023-04-25T21:32:40;8.80;99.90
1123;DHT22;548;48.778;9.252;2023-04-25T21:35:09;8.90;99.90
1123;DHT22;548;48.778;9.252;2023-04-25T21:37:36;8.90;99.90
1123;DHT22;548;48.778;9.252;2023-04-25T21:40:03;8.90;99.90
1123;DHT22;548;48.778;9.252;2023-04-25T21:42:30;8.90;99.90
1123;DHT22;548;48.778;9.252;2023-04-25T21:44:57;8.90;99.90
1123;DHT22;548;48.778;9.252;2023-04-25T21:47:23;8.90;99.90
1123;DHT22;548;48.778;9.252;2023-04-25T21:49:50;8.80;99.90
1123;DHT22;548;48.778;9.252;2023-04-25T21:52:18;9.00;99.90
1123;DHT22;548;48.778;9.252;2023-04-25T21:54:45;9.00;99.90
1123;DHT22;548;48.778;9.252;2023-04-25T21:57:12;9.00;99.90
1123;DHT22;548;48.778;9.252;2023-04-25T21:59:38;9.00;99.90
1123;DHT22;548;48.778;9.252;2023-04-25T22:02:05;9.00;99.90
1123;DHT22;548;48.778;9.252;2023-04-25T22:04:32;9.00;99.90
1123;DHT22;548;48.778;9.252;2023-04-25T22:06:59;9.00;99.90
1123;DHT22;548;48.778;9.252;2023-04-25T22:09:27;9.00;99.90
1123;DHT22;548;48.778;9.252;2023-04-25T22:11:53;9.00;99.90
1123;DHT22;548;48.778;9.252;2023-04-25T22:14:20;9.10;99.90
1123;DHT22;548;48.778;9.252;2023-04-25T22:16:47;9.00;99.90
1123;DHT22;548;48.778;9.252;2023-04-25T22:19:14;8.90;99.90
